Time,TemperatureF,DewpointF,PressureIn,WindDirection,WindDirectionDegrees,WindSpeedMPH,WindSpeedGustMPH,Humidity,HourlyPrecipIn,Conditions,Clouds,dailyrainin,SoftwareType,DateUTC
2013-07-29 02:33:00,66.0,42.0,-100.00,ESE,106,2.0,5.0,41,-99.99,,,-99.99,,2013-07-29 09:33:00,
2013-07-29 09:03:00,74.0,42.0,-100.00,SSE,163,4.0,6.0,32,-99.99,,,-99.99,,2013-07-29 16:03:00,
2013-07-29 09:54:00,77.0,44.0,-100.00,SSE,159,7.0,11.0,31,-99.99,,,-99.99,,2013-07-29 16:54:00,
2013-07-29 10:12:00,77.0,43.0,-100.00,SSE,165,8.0,13.0,30,-99.99,,,-99.99,,2013-07-29 17:12:00,
2013-07-29 10:23:00,77.0,43.0,-100.00,South,172,8.0,11.0,30,-99.99,,,-99.99,,2013-07-29 17:23:00,
2013-07-29 10:35:00,78.0,43.0,-100.00,SSE,166,7.0,13.0,29,-99.99,,,-99.99,,2013-07-29 17:35:00,
2013-07-29 10:43:00,78.0,43.0,-100.00,South,177,7.0,12.0,29,-99.99,,,-99.99,,2013-07-29 17:43:00,
2013-07-29 11:02:00,79.0,44.0,-100.00,South,185,7.0,10.0,29,-99.99,,,-99.99,,2013-07-29 18:02:00,
2013-07-29 11:12:00,79.0,48.0,-100.00,WNW,299,4.0,9.0,34,-99.99,,,-99.99,,2013-07-29 18:12:00,
2013-07-29 11:22:00,77.0,49.0,-100.00,NW,313,5.0,9.0,37,-99.99,,,-99.99,,2013-07-29 18:22:00,
2013-07-29 12:02:00,77.0,51.0,-100.00,NW,304,6.0,10.0,41,-99.99,,,-99.99,,2013-07-29 19:02:00,
2013-07-29 12:13:00,77.0,51.0,-100.00,NW,304,6.0,10.0,41,-99.99,,,-99.99,,2013-07-29 19:13:00,
2013-07-29 12:22:00,78.0,52.0,-100.00,NW,306,5.0,10.0,40,-99.99,,,-99.99,,2013-07-29 19:22:00,
2013-07-29 12:35:00,77.0,51.0,-100.00,NW,307,6.0,10.0,40,-99.99,,,-99.99,,2013-07-29 19:35:00,
2013-07-29 12:44:00,78.0,52.0,-100.00,NW,311,7.0,12.0,41,-99.99,,,-99.99,,2013-07-29 19:44:00,
2013-07-29 12:53:00,78.0,52.0,-100.00,NW,311,7.0,12.0,41,-99.99,,,-99.99,,2013-07-29 19:53:00,
2013-07-29 13:03:00,78.0,52.0,-100.00,WNW,303,6.0,11.0,41,-99.99,,,-99.99,,2013-07-29 20:03:00,
2013-07-29 13:12:00,79.0,52.0,-100.00,NW,305,6.0,11.0,39,-99.99,,,-99.99,,2013-07-29 20:12:00,
2013-07-29 13:33:00,79.0,53.0,-100.00,WNW,296,6.0,11.0,40,-99.99,,,-99.99,,2013-07-29 20:33:00,
2013-07-29 13:44:00,79.0,53.0,-100.00,NW,305,7.0,11.0,40,-99.99,,,-99.99,,2013-07-29 20:44:00,
2013-07-29 13:55:00,79.0,53.0,-100.00,NW,305,7.0,11.0,40,-99.99,,,-99.99,,2013-07-29 20:55:00,
2013-07-29 14:02:00,79.0,53.0,-100.00,WNW,289,6.0,13.0,40,-99.99,,,-99.99,,2013-07-29 21:02:00,
2013-07-29 14:13:00,80.0,53.0,-100.00,WNW,298,7.0,14.0,39,-99.99,,,-99.99,,2013-07-29 21:13:00,
2013-07-29 14:22:00,80.0,52.0,-100.00,WNW,299,6.0,11.0,38,-99.99,,,-99.99,,2013-07-29 21:22:00,
2013-07-29 14:33:00,80.0,52.0,-100.00,WNW,300,6.0,12.0,38,-99.99,,,-99.99,,2013-07-29 21:33:00,
2013-07-29 14:53:00,81.0,52.0,-100.00,WNW,289,5.0,13.0,37,-99.99,,,-99.99,,2013-07-29 21:53:00,
2013-07-29 15:12:00,81.0,52.0,-100.00,WNW,294,6.0,15.0,37,-99.99,,,-99.99,,2013-07-29 22:12:00,
2013-07-29 15:43:00,79.0,52.0,-100.00,WNW,288,6.0,12.0,39,-99.99,,,-99.99,,2013-07-29 22:43:00,
2013-07-29 15:54:00,79.0,52.0,-100.00,WNW,288,6.0,12.0,39,-99.99,,,-99.99,,2013-07-29 22:54:00,
2013-07-29 16:03:00,79.0,53.0,-100.00,WNW,298,7.0,14.0,40,-99.99,,,-99.99,,2013-07-29 23:03:00,
2013-07-29 16:12:00,80.0,53.0,-100.00,WNW,292,6.0,11.0,39,-99.99,,,-99.99,,2013-07-29 23:12:00,
2013-07-29 16:22:00,79.0,52.0,-100.00,WNW,291,5.0,13.0,39,-99.99,,,-99.99,,2013-07-29 23:22:00,
2013-07-29 16:33:00,78.0,52.0,-100.00,WNW,283,6.0,11.0,40,-99.99,,,-99.99,,2013-07-29 23:33:00,
2013-07-29 16:53:00,77.0,51.0,-100.00,WNW,288,6.0,12.0,41,-99.99,,,-99.99,,2013-07-29 23:53:00,
2013-07-29 17:13:00,77.0,52.0,-100.00,WNW,295,7.0,13.0,42,-99.99,,,-99.99,,2013-07-30 00:13:00,
2013-07-29 17:23:00,77.0,51.0,-100.00,WNW,283,6.0,13.0,41,-99.99,,,-99.99,,2013-07-30 00:23:00,
2013-07-29 17:33:00,77.0,51.0,-100.00,WNW,297,6.0,12.0,41,-99.99,,,-99.99,,2013-07-30 00:33:00,
2013-07-29 18:03:00,76.0,52.0,-100.00,WNW,295,6.0,11.0,43,-99.99,,,-99.99,,2013-07-30 01:03:00,
2013-07-29 18:13:00,75.0,52.0,-100.00,WNW,290,5.0,10.0,44,-99.99,,,-99.99,,2013-07-30 01:13:00,
2013-07-29 18:33:00,74.0,52.0,-100.00,NW,308,6.0,11.0,46,-99.99,,,-99.99,,2013-07-30 01:33:00,
2013-07-29 18:53:00,73.0,53.0,-100.00,WNW,303,6.0,10.0,49,-99.99,,,-99.99,,2013-07-30 01:53:00,
2013-07-29 19:03:00,72.0,53.0,-100.00,WNW,299,6.0,10.0,51,-99.99,,,-99.99,,2013-07-30 02:03:00,
2013-07-29 19:13:00,71.0,52.0,-100.00,NW,308,6.0,10.0,52,-99.99,,,-99.99,,2013-07-30 02:13:00,
2013-07-29 19:33:00,70.0,52.0,-100.00,NW,305,6.0,9.0,53,-99.99,,,-99.99,,2013-07-30 02:33:00,
2013-07-29 20:13:00,67.0,53.0,-100.00,NW,306,4.0,6.0,61,-99.99,,,-99.99,,2013-07-30 03:13:00,
2013-07-29 20:52:00,65.0,53.0,-100.00,NW,306,4.0,6.0,65,-99.99,,,-99.99,,2013-07-30 03:52:00,
2013-07-29 21:22:00,64.0,53.0,-100.00,NW,326,4.0,4.0,67,-99.99,,,-99.99,,2013-07-30 04:22:00,
2013-07-29 21:32:00,66.0,53.0,-100.00,NNW,331,3.0,4.0,62,-99.99,,,-99.99,,2013-07-30 04:32:00,
2013-07-29 21:43:00,67.0,53.0,-100.00,NNW,338,2.0,3.0,61,-99.99,,,-99.99,,2013-07-30 04:43:00,
2013-07-29 22:11:00,67.0,52.0,-100.00,East,98,2.0,2.0,59,-99.99,,,-99.99,,2013-07-30 05:11:00,
2013-07-29 22:22:00,67.0,52.0,-100.00,ESE,110,2.0,4.0,59,-99.99,,,-99.99,,2013-07-30 05:22:00,
2013-07-29 22:32:00,67.0,53.0,-100.00,ENE,71,2.0,4.0,60,-99.99,,,-99.99,,2013-07-30 05:32:00,
2013-07-29 22:45:00,67.0,53.0,-100.00,ESE,120,3.0,4.0,60,-99.99,,,-99.99,,2013-07-30 05:45:00,
2013-07-29 23:02:00,66.0,52.0,-100.00,ESE,107,3.0,4.0,61,-99.99,,,-99.99,,2013-07-30 06:02:00,
2013-07-29 23:12:00,66.0,52.0,-100.00,East,92,2.0,3.0,61,-99.99,,,-99.99,,2013-07-30 06:12:00,
2013-07-29 23:32:00,67.0,52.0,-100.00,ESE,103,3.0,4.0,58,-99.99,,,-99.99,,2013-07-30 06:32:00,
2013-07-29 23:43:00,67.0,52.0,-100.00,ENE,78,2.0,4.0,58,-99.99,,,-99.99,,2013-07-30 06:43:00,
2013-07-29 23:52:00,67.0,52.0,-100.00,ENE,61,3.0,4.0,58,-99.99,,,-99.99,,2013-07-30 06:52:00,